This is the latest recevied weather packets stored in our database for station/object KF4ERV-4. If no packets are shown the sender has not sent any weather packets the latest 1 day(s).
| Time | Temp. | Humidity | Pressure | Rain* | Wind** | Luminosity | Snow |
|---|---|---|---|---|---|---|---|
| 1836274832 | 22.22° C | 88% | 1018.3 hPa | 0 mm | 0 m/s | - | - |
| 1836274637 | 22.22° C | 85% | 1018.3 hPa | 0 mm | 0 m/s | - | - |
| 1836274524 | 22.22° C | 85% | 1018.3 hPa | 0 mm | 0 m/s | - | - |
| 1836274468 | 22.22° C | 91% | 1018.4 hPa | 0 mm | 0 m/s | - | - |
| 1836274380 | 22.22° C | 91% | 1018.4 hPa | 0 mm | 0 m/s | - | - |
| 1836274347 | 22.22° C | 85% | 1018.1 hPa | 0 mm | 0 m/s | - | - |
| 1836274228 | 22.22° C | 85% | 1018.1 hPa | 0 mm | 0 m/s | - | - |
| 1836274178 | 22.22° C | 88% | 1018.3 hPa | 0 mm | 0 m/s | - | - |
| 1836274057 | 22.78° C | 85% | 1018 hPa | 0 mm | 0 m/s | - | - |
| 1836273932 | 22.78° C | 85% | 1018 hPa | 0 mm | 0 m/s | - | - |
| 1778064299 | 7.78° C | 65% | 1011.7 hPa | 0 mm | 0 m/s | - | - |
| 1778064134 | 7.78° C | 66% | 1011.9 hPa | 0 mm | 0 m/s | - | - |
| 1778064052 | 7.78° C | 66% | 1011.9 hPa | 0 mm | 0 m/s | - | - |
| 1778063843 | 7.78° C | 67% | 1012 hPa | 0 mm | 0 m/s | - | - |
| 1778063822 | 7.78° C | 68% | 1011.8 hPa | 0 mm | 0 m/s | - | - |
| 1778063693 | 7.78° C | 67% | 1012 hPa | 0 mm | 0 m/s | - | - |
| 1778063559 | 7.78° C | 69% | 1011.1 hPa | 0 mm | 0 m/s | - | - |
| 1778063552 | 7.78° C | 68% | 1011.8 hPa | 0 mm | 0 m/s | - | - |
| 1778063398 | 7.78° C | 68% | 1011.8 hPa | 0 mm | 0 m/s | - | - |
| 1778063262 | 7.78° C | 69% | 1011.1 hPa | 0 mm | 0 m/s | - | - |
| 1778063158 | 7.78° C | 69% | 1011.1 hPa | 0 mm | 0 m/s | - | - |
| 1778063099 | 7.78° C | 69% | 1011.1 hPa | 0 mm | 0 m/s | - | - |
| 1778062972 | 7.78° C | 70% | 1011 hPa | 0 mm | 0 m/s | - | - |
| 1778062857 | 7.78° C | 70% | 1011 hPa | 0 mm | 0 m/s | - | - |
| 1778062791 | 7.78° C | 70% | 1011 hPa | 0 mm | 0 m/s | - | - |
* Rain latest hour (hover to see other rain measurements)
** Current wind speed in m/s (hover to see current wind gust speed)